Time;durP1;ratioP1;P1;durP2;ratioP2;P2;SDS_P1;SDS_P2;PMS_P1;PMS_P2;Temp;Humidity;BMP_temperature;BMP_pressure;BME280_temperature;BME280_humidity;BME280_pressure;Samples;Min_cycle;Max_cycle;Signal;HPM_P1;HPM_P2
2023/05/28 00:00:24;;;;;;;13.43;9.30;;;20.50;91.20;;;;;;5092938;28;20395;-87
2023/05/28 00:03:31;;;;;;;14.27;9.10;;;20.50;91.10;;;;;;5080200;28;20055;-88
2023/05/28 00:06:35;;;;;;;15.93;9.60;;;20.60;91.10;;;;;;5092489;28;20039;-87
2023/05/28 00:09:41;;;;;;;18.70;11.10;;;20.50;91.70;;;;;;5092570;28;20051;-88
2023/05/28 00:12:45;;;;;;;15.13;11.18;;;20.20;91.90;;;;;;5092610;28;20054;-88
2023/05/28 00:15:49;;;;;;;15.10;11.02;;;20.10;92.50;;;;;;5092490;28;20113;-88
2023/05/28 00:18:53;;;;;;;20.05;11.25;;;20.10;92.60;;;;;;5092520;28;20039;-90
2023/05/28 00:21:56;;;;;;;15.68;10.65;;;20.10;92.70;;;;;;5068218;28;20047;-88
2023/05/28 00:25:00;;;;;;;15.68;11.05;;;20.20;92.50;;;;;;5092490;28;20039;-88
2023/05/28 00:28:04;;;;;;;16.10;11.95;;;20.20;92.50;;;;;;5079709;28;20062;-89
2023/05/28 00:31:08;;;;;;;16.38;10.63;;;20.20;92.60;;;;;;5079640;28;20055;-87
2023/05/28 00:34:12;;;;;;;14.45;10.43;;;20.20;92.70;;;;;;5092223;28;20388;-86
2023/05/28 00:37:17;;;;;;;15.52;10.25;;;20.30;92.60;;;;;;5091893;28;20050;-87
2023/05/28 00:40:21;;;;;;;17.42;10.68;;;20.20;92.60;;;;;;5091778;28;20510;-88
2023/05/28 00:43:26;;;;;;;15.13;10.90;;;20.20;92.60;;;;;;5079632;28;20399;-88
2023/05/28 00:46:30;;;;;;;19.88;10.52;;;20.20;92.50;;;;;;5091885;28;20039;-88
2023/05/28 00:49:34;;;;;;;20.30;10.93;;;20.20;92.50;;;;;;5091719;28;20047;-87
2023/05/28 00:52:39;;;;;;;18.60;11.18;;;20.10;92.60;;;;;;5079728;28;20047;-88
2023/05/28 00:55:44;;;;;;;18.00;11.27;;;20.00;92.80;;;;;;5079270;28;20047;-86
2023/05/28 00:58:48;;;;;;;21.13;11.60;;;20.00;92.90;;;;;;5079920;28;20055;-82
2023/05/28 01:01:53;;;;;;;19.20;11.45;;;19.90;93.10;;;;;;5091456;28;20051;-87
2023/05/28 01:04:56;;;;;;;22.15;12.10;;;20.00;93.30;;;;;;5091954;28;20035;-87
2023/05/28 01:08:06;;;;;;;19.27;12.02;;;19.90;93.10;;;;;;5091443;28;20055;-88
2023/05/28 01:11:15;;;;;;;20.05;12.20;;;19.90;93.10;;;;;;5079401;28;20637;-87
2023/05/28 01:14:20;;;;;;;27.55;12.95;;;19.80;93.40;;;;;;5067860;28;20055;-87
2023/05/28 01:17:25;;;;;;;22.65;11.88;;;19.80;93.20;;;;;;5091888;28;20062;-87
2023/05/28 01:20:30;;;;;;;21.48;12.50;;;19.80;93.60;;;;;;5090991;28;20051;-88
2023/05/28 01:23:45;;;;;;;18.52;11.80;;;19.80;93.60;;;;;;5078977;28;20399;-88
2023/05/28 01:26:50;;;;;;;25.95;11.95;;;19.70;93.90;;;;;;5091314;28;20051;-86
2023/05/28 01:29:54;;;;;;;34.20;13.05;;;19.70;93.70;;;;;;5067557;28;20522;-87
2023/05/28 01:32:58;;;;;;;25.23;12.45;;;19.70;93.90;;;;;;5078526;28;20039;-87
2023/05/28 01:36:07;;;;;;;16.25;11.68;;;19.70;93.70;;;;;;5078748;28;20043;-86
2023/05/28 01:39:19;;;;;;;17.95;12.45;;;19.70;93.70;;;;;;5090975;28;20043;-87
2023/05/28 01:42:23;;;;;;;17.33;11.75;;;19.60;93.80;;;;;;5067398;28;20055;-86
2023/05/28 01:45:28;;;;;;;21.20;13.10;;;19.60;93.80;;;;;;5094186;28;20035;-88
2023/05/28 01:48:34;;;;;;;23.70;12.10;;;19.50;93.80;;;;;;5082939;28;20395;-87
2023/05/28 01:51:38;;;;;;;17.80;12.85;;;19.50;94.10;;;;;;5095229;28;20047;-87
2023/05/28 01:54:42;;;;;;;19.60;12.80;;;19.40;94.20;;;;;;5095344;28;20043;-87
2023/05/28 01:57:46;;;;;;;22.80;12.18;;;19.40;94.40;;;;;;5071139;28;20039;-88
2023/05/28 02:01:06;;;;;;;19.80;12.27;;;19.30;94.40;;;;;;5082662;28;20507;-87
2023/05/28 02:04:10;;;;;;;18.40;11.77;;;19.20;94.50;;;;;;5082487;28;20043;-86
2023/05/28 02:07:14;;;;;;;21.75;12.48;;;19.20;94.90;;;;;;5082006;28;20062;-87
2023/05/28 02:10:18;;;;;;;17.95;12.38;;;19.10;94.70;;;;;;5082258;28;20532;-87
2023/05/28 02:13:22;;;;;;;23.95;11.98;;;19.00;94.80;;;;;;5070529;28;20035;-87
2023/05/28 02:16:28;;;;;;;21.90;12.15;;;18.90;95.10;;;;;;5082282;28;20043;-88
2023/05/28 02:19:32;;;;;;;22.98;12.43;;;18.90;95.10;;;;;;5082107;28;20039;-87
2023/05/28 02:22:37;;;;;;;19.45;12.15;;;18.80;95.20;;;;;;5070601;28;20407;-88
2023/05/28 02:25:41;;;;;;;23.92;13.00;;;18.80;95.50;;;;;;5081714;28;20059;-88
2023/05/28 02:28:45;;;;;;;18.95;12.57;;;18.80;95.50;;;;;;5094357;28;20047;-87
2023/05/28 02:31:50;;;;;;;20.50;12.52;;;18.90;95.10;;;;;;5081777;28;20039;-88
2023/05/28 02:34:54;;;;;;;19.38;11.75;;;18.70;95.20;;;;;;5081842;28;20059;-87
2023/05/28 02:37:58;;;;;;;17.73;12.35;;;18.70;95.60;;;;;;5081680;28;20035;-86
2023/05/28 02:41:02;;;;;;;21.08;12.40;;;18.60;95.70;;;;;;5081592;28;20051;-89
2023/05/28 02:44:06;;;;;;;19.67;12.18;;;18.60;95.70;;;;;;5081480;28;20645;-88
2023/05/28 02:47:10;;;;;;;22.17;12.70;;;18.60;95.90;;;;;;5094224;28;20510;-87
2023/05/28 02:50:15;;;;;;;22.50;12.60;;;18.60;96.00;;;;;;5070056;28;20062;-87
2023/05/28 02:53:41;;;;;;;18.02;11.48;;;18.60;95.90;;;;;;5069899;28;20039;-87
2023/05/28 02:56:45;;;;;;;18.45;12.45;;;18.60;95.90;;;;;;5080070;28;20051;-87
2023/05/28 02:59:50;;;;;;;20.55;13.48;;;18.60;95.70;;;;;;5093992;28;20051;-87
2023/05/28 03:02:55;;;;;;;19.58;11.82;;;18.50;95.60;;;;;;5081050;28;20403;-87
2023/05/28 03:06:01;;;;;;;17.75;12.75;;;18.40;95.70;;;;;;5081502;28;20051;-87
2023/05/28 03:09:08;;;;;;;22.00;12.95;;;18.40;95.70;;;;;;5081178;28;20059;-87
2023/05/28 03:12:12;;;;;;;17.58;12.63;;;18.30;95.80;;;;;;5093687;28;20039;-88
2023/05/28 03:15:16;;;;;;;26.55;13.07;;;18.30;96.00;;;;;;5069495;28;20392;-86
2023/05/28 03:18:20;;;;;;;18.30;12.57;;;18.20;96.00;;;;;;5080981;28;20043;-88
2023/05/28 03:21:24;;;;;;;20.02;12.48;;;18.20;96.00;;;;;;5080715;28;20047;-87
2023/05/28 03:24:30;;;;;;;23.50;13.27;;;18.10;96.10;;;;;;5092770;28;20043;-88
2023/05/28 03:27:34;;;;;;;21.88;12.90;;;18.00;96.20;;;;;;5080590;28;20047;-87
2023/05/28 03:30:38;;;;;;;20.15;12.98;;;18.00;96.30;;;;;;5081036;28;20035;-87
2023/05/28 03:33:42;;;;;;;20.85;12.57;;;17.90;96.30;;;;;;5081006;28;20047;-86
2023/05/28 03:36:46;;;;;;;24.15;13.85;;;18.00;95.90;;;;;;5092964;28;20043;-86
2023/05/28 03:39:50;;;;;;;17.63;13.20;;;18.00;96.10;;;;;;5093206;28;20051;-86
2023/05/28 03:42:54;;;;;;;21.60;13.23;;;18.00;96.00;;;;;;5080438;28;20063;-88
2023/05/28 03:45:58;;;;;;;20.65;12.77;;;18.00;96.20;;;;;;5080465;28;20085;-86
2023/05/28 03:49:02;;;;;;;19.10;12.55;;;18.00;96.40;;;;;;5080314;28;20047;-86
2023/05/28 03:52:07;;;;;;;19.30;12.30;;;17.90;96.10;;;;;;5080595;28;20047;-87
2023/05/28 03:55:20;;;;;;;20.92;12.27;;;17.80;96.20;;;;;;5080302;28;20043;-87
2023/05/28 03:58:25;;;;;;;19.00;13.95;;;17.80;96.60;;;;;;5068978;28;20085;-85
2023/05/28 04:01:29;;;;;;;20.48;13.85;;;17.90;96.60;;;;;;5080203;28;20047;-87
2023/05/28 04:04:34;;;;;;;26.50;14.98;;;18.10;96.20;;;;;;5080069;28;20067;-86
2023/05/28 04:07:38;;;;;;;20.08;13.68;;;18.10;95.60;;;;;;5091979;28;20066;-86
2023/05/28 04:10:42;;;;;;;20.42;13.50;;;18.00;95.70;;;;;;5068606;28;20051;-86
2023/05/28 04:13:46;;;;;;;21.38;13.63;;;17.90;96.10;;;;;;5080145;28;20039;-87
2023/05/28 04:16:50;;;;;;;18.75;12.77;;;18.00;96.40;;;;;;5079707;28;20035;-87
2023/05/28 04:19:54;;;;;;;21.33;13.73;;;18.10;96.20;;;;;;5079885;28;20426;-86
2023/05/28 04:22:59;;;;;;;24.17;14.45;;;18.20;95.80;;;;;;5079685;28;20066;-86
2023/05/28 04:26:06;;;;;;;21.17;13.02;;;18.20;95.60;;;;;;5079440;28;20043;-87
2023/05/28 04:29:11;;;;;;;20.30;13.75;;;18.20;95.80;;;;;;5079732;28;20058;-87
2023/05/28 04:32:15;;;;;;;17.13;12.45;;;18.10;95.80;;;;;;5056817;28;20399;-86
2023/05/28 04:35:19;;;;;;;22.52;13.10;;;18.20;96.20;;;;;;5079571;28;20047;-87
2023/05/28 04:38:24;;;;;;;19.95;12.57;;;18.50;95.40;;;;;;5079397;28;20043;-88
2023/05/28 04:41:28;;;;;;;22.45;11.88;;;18.80;94.80;;;;;;5092006;28;20035;-88
2023/05/28 04:44:32;;;;;;;18.83;12.13;;;19.00;94.60;;;;;;5092330;28;20046;-87
2023/05/28 04:47:39;;;;;;;15.25;11.95;;;19.30;94.70;;;;;;5079199;28;20052;-88
2023/05/28 04:50:43;;;;;;;14.18;11.90;;;19.80;94.00;;;;;;5079508;28;20059;-88
2023/05/28 04:53:47;;;;;;;23.23;11.90;;;20.10;93.70;;;;;;5079652;28;20043;-88
2023/05/28 04:56:52;;;;;;;19.95;11.10;;;20.40;93.20;;;;;;5091003;28;20047;-88
2023/05/28 04:59:56;;;;;;;22.85;12.25;;;20.50;93.20;;;;;;5092187;28;20043;-88
2023/05/28 05:03:01;;;;;;;23.35;14.98;;;20.70;93.20;;;;;;5079047;28;20063;-88
2023/05/28 05:06:06;;;;;;;448.13;302.38;;;21.10;92.70;;;;;;5079361;28;20035;-87
2023/05/28 05:09:11;;;;;;;112.20;65.53;;;21.30;92.30;;;;;;5067571;28;20044;-88
2023/05/28 05:12:15;;;;;;;28.83;16.83;;;21.40;91.90;;;;;;5079355;28;20035;-88
2023/05/28 05:15:20;;;;;;;18.70;12.00;;;21.60;91.80;;;;;;5068161;28;20047;-89
2023/05/28 05:18:24;;;;;;;24.05;14.38;;;21.80;91.40;;;;;;5078816;28;20523;-88
2023/05/28 05:21:27;;;;;;;18.92;13.40;;;21.90;90.80;;;;;;5079034;28;20075;-88
2023/05/28 05:24:32;;;;;;;21.58;15.13;;;21.80;91.30;;;;;;5078917;28;20047;-88
2023/05/28 05:27:36;;;;;;;18.23;15.20;;;22.00;91.40;;;;;;5091471;28;20595;-88
2023/05/28 05:30:40;;;;;;;21.25;15.70;;;21.90;91.30;;;;;;5078976;28;20383;-88
2023/05/28 05:33:44;;;;;;;20.17;14.00;;;22.10;91.20;;;;;;5079185;28;20047;-87
2023/05/28 05:37:06;;;;;;;20.35;12.98;;;22.30;90.70;;;;;;5079159;28;20047;-88
2023/05/28 05:40:34;;;;;;;18.63;12.90;;;22.50;90.00;;;;;;5078868;28;20541;-87
2023/05/28 05:43:48;;;;;;;18.77;13.35;;;22.70;89.40;;;;;;5091238;28;20059;-89
2023/05/28 05:46:52;;;;;;;22.67;13.23;;;22.80;89.70;;;;;;5079002;28;20039;-88
2023/05/28 05:49:56;;;;;;;21.73;14.05;;;22.90;89.30;;;;;;5080553;28;20035;-87
2023/05/28 05:53:02;;;;;;;20.73;12.57;;;23.10;89.50;;;;;;5079144;28;20051;-89
2023/05/28 05:56:07;;;;;;;15.20;11.57;;;23.30;89.20;;;;;;5079041;28;20592;-89
2023/05/28 05:59:11;;;;;;;19.40;10.07;;;23.40;88.70;;;;;;5090193;28;20071;-90
2023/05/28 06:02:15;;;;;;;15.70;11.23;;;23.50;86.50;;;;;;5078539;28;20426;-88
2023/05/28 06:05:19;;;;;;;16.80;11.35;;;23.60;85.60;;;;;;5067196;28;20427;-89
2023/05/28 06:08:46;;;;;;;15.35;11.52;;;23.80;86.40;;;;;;5082878;28;20063;-88
2023/05/28 06:12:01;;;;;;;15.07;11.25;;;23.90;86.10;;;;;;5078698;28;20512;-91
2023/05/28 06:15:06;;;;;;;18.40;12.45;;;24.20;85.80;;;;;;5067840;28;20047;-91
2023/05/28 06:18:11;;;;;;;19.63;13.00;;;24.30;85.10;;;;;;5079118;28;20541;-91
2023/05/28 06:21:15;;;;;;;20.83;12.15;;;24.50;84.70;;;;;;5079299;28;20035;-90
2023/05/28 06:24:21;;;;;;;21.35;11.38;;;24.60;83.10;;;;;;5079961;28;20055;-91
2023/05/28 06:27:25;;;;;;;13.43;10.60;;;24.90;83.00;;;;;;5078806;28;20392;-90
2023/05/28 06:30:30;;;;;;;15.95;11.02;;;25.10;83.30;;;;;;5068410;28;20043;-91
2023/05/28 06:33:35;;;;;;;17.80;11.00;;;25.50;83.30;;;;;;5082623;28;20047;-90
2023/05/28 06:36:39;;;;;;;13.98;11.15;;;25.80;82.20;;;;;;5089878;28;20043;-89
2023/05/28 06:39:43;;;;;;;16.98;10.93;;;25.90;80.60;;;;;;5084738;28;20063;-91
2023/05/28 06:42:47;;;;;;;17.48;11.02;;;26.20;81.10;;;;;;5095665;28;20074;-90
2023/05/28 06:46:11;;;;;;;12.20;10.25;;;26.30;80.00;;;;;;5095597;28;20047;-90
2023/05/28 06:49:16;;;;;;;14.77;9.55;;;26.00;79.30;;;;;;5096659;28;20043;-93
2023/05/28 06:52:20;;;;;;;23.38;9.60;;;26.20;79.30;;;;;;5083916;28;20035;-89
2023/05/28 06:55:26;;;;;;;13.77;9.40;;;26.50;79.20;;;;;;5081664;28;20187;-88
2023/05/28 06:58:50;;;;;;;14.27;9.40;;;26.80;76.90;;;;;;5094723;28;20043;-90
2023/05/28 07:02:14;;;;;;;12.15;8.90;;;27.20;76.60;;;;;;5084388;28;20506;-87
2023/05/28 07:05:53;;;;;;;11.23;8.32;;;27.50;76.70;;;;;;5018187;28;20169;-90
2023/05/28 07:08:58;;;;;;;13.95;7.90;;;27.80;75.30;;;;;;5095758;28;20051;-91
2023/05/28 07:12:02;;;;;;;17.15;8.18;;;28.00;74.40;;;;;;5081884;28;20102;-89
2023/05/28 07:15:09;;;;;;;12.82;8.73;;;28.00;74.00;;;;;;5081363;28;20043;-88
2023/05/28 07:18:14;;;;;;;17.65;9.48;;;28.20;74.60;;;;;;5069467;28;20055;-83
2023/05/28 07:21:18;;;;;;;13.45;10.18;;;28.50;75.30;;;;;;5081151;28;20042;-88
2023/05/28 07:24:23;;;;;;;13.13;8.35;;;28.60;74.20;;;;;;5081465;28;20059;-87
2023/05/28 07:27:28;;;;;;;13.52;9.07;;;28.70;74.00;;;;;;5081096;28;20352;-86
2023/05/28 07:30:32;;;;;;;13.90;9.27;;;28.90;74.60;;;;;;5080322;28;20071;-85
2023/05/28 07:33:39;;;;;;;13.23;8.02;;;28.90;73.00;;;;;;5080311;28;20494;-82
2023/05/28 07:36:43;;;;;;;11.65;8.20;;;29.00;73.00;;;;;;5081136;28;20043;-92
2023/05/28 07:39:47;;;;;;;12.10;9.57;;;29.10;72.30;;;;;;5094013;28;20059;-92
2023/05/28 07:42:51;;;;;;;10.52;7.53;;;29.00;72.30;;;;;;5079996;28;20054;-87
2023/05/28 07:45:55;;;;;;;10.30;8.00;;;29.00;73.10;;;;;;5095234;28;20059;-91
2023/05/28 07:49:03;;;;;;;14.68;7.13;;;29.10;71.00;;;;;;5081437;28;20039;-93
2023/05/28 07:52:11;;;;;;;11.80;6.88;;;29.10;71.70;;;;;;5082214;28;20054;-92
2023/05/28 07:55:16;;;;;;;10.68;6.55;;;29.30;71.90;;;;;;5097110;28;20039;-90
2023/05/28 07:58:20;;;;;;;10.40;7.07;;;29.40;71.30;;;;;;5096817;28;20039;-89
2023/05/28 08:01:24;;;;;;;9.00;6.60;;;29.70;71.00;;;;;;5097385;28;20060;-82
2023/05/28 08:04:28;;;;;;;13.85;7.03;;;29.70;69.00;;;;;;5085500;28;20055;-90
2023/05/28 08:07:33;;;;;;;12.45;6.78;;;29.70;69.90;;;;;;5085267;28;20055;-86
2023/05/28 08:10:37;;;;;;;9.40;6.43;;;29.90;68.90;;;;;;5075264;28;20039;-89
2023/05/28 08:13:43;;;;;;;9.32;5.88;;;29.90;69.00;;;;;;5080592;28;20106;-86
2023/05/28 08:16:48;;;;;;;9.52;5.72;;;30.10;67.90;;;;;;5086689;28;20478;-90
2023/05/28 08:20:29;;;;;;;12.48;5.55;;;30.30;67.70;;;;;;5096309;28;20051;-83
2023/05/28 08:23:43;;;;;;;12.07;5.78;;;30.10;67.10;;;;;;5095090;28;20063;-82
2023/05/28 08:26:48;;;;;;;12.40;6.43;;;30.30;67.60;;;;;;5071363;28;20039;-85
2023/05/28 08:29:52;;;;;;;12.25;5.70;;;30.40;65.70;;;;;;5074182;28;20058;-85
2023/05/28 08:32:56;;;;;;;9.02;6.13;;;30.30;67.20;;;;;;5080408;28;20043;-90
2023/05/28 08:36:02;;;;;;;8.35;5.78;;;30.40;68.00;;;;;;5079824;28;20498;-83
2023/05/28 08:39:10;;;;;;;10.10;6.18;;;30.50;67.50;;;;;;5081279;28;20043;-87
2023/05/28 08:42:15;;;;;;;9.45;5.97;;;30.50;66.50;;;;;;5079347;28;20395;-87
2023/05/28 08:45:19;;;;;;;7.78;5.18;;;30.60;66.40;;;;;;5094834;28;20051;-90
2023/05/28 08:48:29;;;;;;;6.25;5.30;;;30.50;65.20;;;;;;5084843;28;20383;-91
2023/05/28 08:51:36;;;;;;;8.35;5.30;;;30.30;65.50;;;;;;5080450;28;20051;-92
2023/05/28 08:54:41;;;;;;;8.65;5.15;;;30.10;65.10;;;;;;5082736;28;20051;-92
2023/05/28 08:57:46;;;;;;;8.07;5.75;;;29.80;65.10;;;;;;5093178;28;20051;-88
2023/05/28 09:00:50;;;;;;;6.63;5.75;;;29.60;65.00;;;;;;5079646;28;20047;-89
2023/05/28 09:04:11;;;;;;;8.38;5.97;;;29.40;65.30;;;;;;5071479;28;20435;-85
2023/05/28 09:07:18;;;;;;;8.50;5.75;;;29.10;66.30;;;;;;5087993;28;20059;-90
2023/05/28 09:10:39;;;;;;;9.00;5.60;;;29.20;66.30;;;;;;5081058;28;20392;-86
2023/05/28 09:13:45;;;;;;;7.68;5.50;;;29.40;66.80;;;;;;5095766;28;20047;-86
2023/05/28 09:16:50;;;;;;;8.82;5.82;;;29.60;66.90;;;;;;5080463;28;20226;-89
2023/05/28 09:19:59;;;;;;;8.68;5.60;;;29.70;66.40;;;;;;5084318;28;20043;-87
2023/05/28 09:23:06;;;;;;;9.80;5.90;;;29.70;67.00;;;;;;5081833;28;20059;-90
2023/05/28 09:26:30;;;;;;;14.13;6.05;;;29.60;67.40;;;;;;5094137;28;20047;-82
2023/05/28 09:29:40;;;;;;;10.02;5.78;;;29.80;67.10;;;;;;5082590;28;20043;-89
2023/05/28 09:32:44;;;;;;;9.93;4.85;;;29.90;66.50;;;;;;5093330;28;20039;-88
2023/05/28 09:35:59;;;;;;;7.45;5.25;;;29.90;67.40;;;;;;5093815;28;20047;-87
2023/05/28 09:39:09;;;;;;;8.55;6.00;;;29.70;65.60;;;;;;5094988;28;20050;-91
2023/05/28 09:42:13;;;;;;;6.07;5.07;;;29.70;65.50;;;;;;5098111;28;20043;-94
2023/05/28 09:45:25;;;;;;;8.82;6.03;;;29.70;67.00;;;;;;5092510;28;20051;-92
2023/05/28 09:48:30;;;;;;;15.88;6.72;;;29.90;67.40;;;;;;5091397;28;20047;-91
2023/05/28 09:51:35;;;;;;;9.75;6.00;;;30.00;66.50;;;;;;5079523;28;20044;-93
2023/05/28 09:54:41;;;;;;;9.93;6.03;;;29.90;66.00;;;;;;5091608;28;20102;-88
2023/05/28 09:57:51;;;;;;;12.55;6.45;;;29.80;67.00;;;;;;5090989;28;20499;-84
2023/05/28 10:00:57;;;;;;;7.07;5.57;;;29.90;67.60;;;;;;5091098;28;20051;-88
2023/05/28 10:04:07;;;;;;;7.05;5.38;;;29.90;66.60;;;;;;5091443;28;20515;-91
2023/05/28 10:07:12;;;;;;;7.78;5.55;;;29.90;66.00;;;;;;5082798;28;20059;-93
2023/05/28 10:10:16;;;;;;;6.50;5.28;;;29.90;65.70;;;;;;5094639;28;20047;-83
2023/05/28 10:13:25;;;;;;;9.25;5.57;;;30.00;66.00;;;;;;5096629;28;20043;-92
2023/05/28 10:16:29;;;;;;;9.57;5.68;;;30.10;65.20;;;;;;5096920;28;20311;-94
2023/05/28 10:19:35;;;;;;;11.38;5.72;;;29.80;64.40;;;;;;5094679;28;20395;-84
2023/05/28 10:22:40;;;;;;;7.80;5.38;;;29.50;65.10;;;;;;5096001;28;20047;-89
2023/05/28 10:25:45;;;;;;;8.88;5.82;;;29.50;66.40;;;;;;5096404;28;20499;-86
2023/05/28 10:28:56;;;;;;;7.20;5.28;;;29.50;64.70;;;;;;5097290;28;20051;-90
2023/05/28 10:32:00;;;;;;;11.30;5.15;;;29.50;64.70;;;;;;5086142;28;20047;-91
2023/05/28 10:35:05;;;;;;;6.90;5.38;;;29.50;66.00;;;;;;5098463;28;20051;-88
2023/05/28 10:38:10;;;;;;;6.13;4.38;;;29.50;63.10;;;;;;5094872;28;20043;-88
2023/05/28 10:41:24;;;;;;;5.88;4.15;;;29.30;62.10;;;;;;5085844;28;20051;-83
2023/05/28 10:44:51;;;;;;;8.02;5.35;;;29.20;63.10;;;;;;5083162;28;20055;-85
2023/05/28 10:47:55;;;;;;;9.25;5.50;;;29.20;65.50;;;;;;5087390;28;20392;-84
2023/05/28 10:51:00;;;;;;;7.97;5.50;;;29.30;65.40;;;;;;5085511;28;20076;-90
2023/05/28 10:54:14;;;;;;;10.57;5.15;;;29.30;65.70;;;;;;5095137;28;20475;-83
2023/05/28 10:57:23;;;;;;;7.95;4.60;;;29.40;65.80;;;;;;5092070;28;20059;-83
2023/05/28 11:00:28;;;;;;;9.80;4.85;;;29.50;66.10;;;;;;5082799;28;20403;-82
2023/05/28 11:03:42;;;;;;;9.52;4.35;;;29.50;65.10;;;;;;5081705;28;20051;-89
2023/05/28 11:06:46;;;;;;;10.07;6.45;;;29.50;65.00;;;;;;5094865;28;20043;-86
2023/05/28 11:09:51;;;;;;;11.00;6.45;;;29.50;68.40;;;;;;5081612;28;20043;-85
2023/05/28 11:12:56;;;;;;;12.68;6.43;;;29.50;70.90;;;;;;5094682;28;20506;-92
2023/05/28 11:16:08;;;;;;;9.57;7.15;;;29.50;70.80;;;;;;5081341;28;20051;-88
2023/05/28 11:19:12;;;;;;;12.05;7.68;;;29.50;70.60;;;;;;5093945;28;20058;-92
2023/05/28 11:22:17;;;;;;;15.18;7.78;;;29.50;71.20;;;;;;5093915;28;20043;-88
2023/05/28 11:25:22;;;;;;;8.73;7.10;;;29.40;71.80;;;;;;5094409;28;20055;-89
2023/05/28 11:28:26;;;;;;;15.38;6.95;;;29.40;72.30;;;;;;5093464;28;20043;-86
2023/05/28 11:31:36;;;;;;;11.00;6.95;;;29.40;72.70;;;;;;5094027;28;20384;-90
2023/05/28 11:34:40;;;;;;;7.23;5.93;;;29.40;72.50;;;;;;5081743;28;20043;-84
2023/05/28 11:37:45;;;;;;;11.90;7.53;;;29.40;72.70;;;;;;5093488;28;20607;-87
2023/05/28 11:40:49;;;;;;;12.13;6.97;;;29.40;71.00;;;;;;5093455;28;20043;-85
2023/05/28 11:43:53;;;;;;;12.23;6.18;;;29.40;72.00;;;;;;5092989;28;20541;-80
2023/05/28 11:46:57;;;;;;;10.10;6.70;;;29.30;72.40;;;;;;5093323;28;20059;-86
2023/05/28 11:50:08;;;;;;;7.70;6.60;;;29.30;70.90;;;;;;5093311;28;20047;-84
2023/05/28 11:53:13;;;;;;;11.68;7.97;;;29.30;72.30;;;;;;5080513;28;20062;-90
2023/05/28 11:56:16;;;;;;;8.30;6.65;;;29.20;73.40;;;;;;5080830;28;20063;-87
2023/05/28 11:59:21;;;;;;;12.18;7.90;;;29.20;73.20;;;;;;5093006;28;20039;-88
2023/05/28 12:02:26;;;;;;;9.75;7.10;;;29.20;73.40;;;;;;5092729;28;20043;-84
2023/05/28 12:05:39;;;;;;;8.52;7.00;;;29.20;73.50;;;;;;5080016;28;20043;-86
2023/05/28 12:08:43;;;;;;;10.38;6.80;;;29.20;73.40;;;;;;5092352;28;20051;-88
2023/05/28 12:12:09;;;;;;;13.13;7.00;;;29.20;72.70;;;;;;5080282;28;20063;-88
2023/05/28 12:15:14;;;;;;;10.77;7.68;;;29.20;73.20;;;;;;5093168;28;20047;-89
2023/05/28 12:18:20;;;;;;;9.50;8.05;;;29.20;73.40;;;;;;5092723;28;20046;-89
2023/05/28 12:21:24;;;;;;;9.45;6.72;;;29.20;72.90;;;;;;5092797;28;20494;-86
2023/05/28 12:24:29;;;;;;;7.03;6.32;;;29.20;73.30;;;;;;5092506;28;20047;-87
2023/05/28 12:27:33;;;;;;;8.27;6.80;;;29.20;73.20;;;;;;5092299;28;20518;-89
2023/05/28 12:30:39;;;;;;;8.52;6.88;;;29.30;72.40;;;;;;5079772;28;20065;-86
2023/05/28 12:33:43;;;;;;;13.82;8.05;;;29.30;72.30;;;;;;5092295;28;20039;-85
2023/05/28 12:36:47;;;;;;;18.67;14.20;;;29.30;72.70;;;;;;5092100;28;20051;-86
2023/05/28 12:39:52;;;;;;;14.43;10.18;;;29.30;73.50;;;;;;5092295;28;20042;-87
2023/05/28 12:42:56;;;;;;;16.20;8.93;;;29.30;74.10;;;;;;5091886;28;20051;-87
2023/05/28 12:46:00;;;;;;;8.93;7.03;;;29.30;73.30;;;;;;5093245;28;20573;-87
2023/05/28 12:49:04;;;;;;;11.80;7.82;;;29.30;74.10;;;;;;5092835;28;20085;-85
2023/05/28 12:52:08;;;;;;;9.43;7.50;;;29.20;74.50;;;;;;5080407;28;20043;-79
2023/05/28 12:55:12;;;;;;;10.85;7.03;;;29.20;75.30;;;;;;5091626;28;20062;-84
2023/05/28 12:58:16;;;;;;;12.18;5.35;;;29.20;75.20;;;;;;5092212;28;20039;-87
2023/05/28 13:01:20;;;;;;;9.60;5.25;;;29.10;68.90;;;;;;5079296;28;20043;-80
2023/05/28 13:04:24;;;;;;;8.60;4.75;;;29.00;69.00;;;;;;5091548;28;20059;-87
2023/05/28 13:07:28;;;;;;;8.75;5.78;;;28.90;69.00;;;;;;5091710;28;20047;-83
2023/05/28 13:10:32;;;;;;;12.07;6.18;;;28.80;69.50;;;;;;5092258;28;20055;-80
2023/05/28 13:13:36;;;;;;;6.68;5.53;;;28.70;70.20;;;;;;5091638;28;20039;-84
2023/05/28 13:16:39;;;;;;;9.95;5.93;;;28.70;70.40;;;;;;5078739;28;20039;-82
2023/05/28 13:19:43;;;;;;;6.38;5.30;;;28.70;71.00;;;;;;5078996;28;20043;-87
2023/05/28 13:22:47;;;;;;;7.93;6.82;;;28.80;71.20;;;;;;5079226;28;20497;-89
2023/05/28 13:25:51;;;;;;;8.43;6.55;;;28.90;73.80;;;;;;5067170;28;20043;-87
2023/05/28 13:28:55;;;;;;;11.48;6.78;;;29.00;75.30;;;;;;5078873;28;20039;-91
2023/05/28 13:31:59;;;;;;;9.32;6.80;;;29.00;75.10;;;;;;5091507;28;20047;-88
2023/05/28 13:35:04;;;;;;;11.10;6.68;;;28.80;74.70;;;;;;5067231;28;20047;-87
2023/05/28 13:38:09;;;;;;;9.57;6.05;;;28.70;75.00;;;;;;5079086;28;20047;-88
2023/05/28 13:41:14;;;;;;;11.27;6.50;;;28.70;75.60;;;;;;5090624;28;20051;-88
2023/05/28 13:44:18;;;;;;;9.93;7.03;;;28.60;75.00;;;;;;5091113;28;20063;-87
2023/05/28 13:47:22;;;;;;;7.38;4.90;;;28.40;75.00;;;;;;5090848;28;20098;-86
2023/05/28 13:50:26;;;;;;;7.68;4.68;;;27.90;72.80;;;;;;5091713;28;20110;-86
2023/05/28 13:53:31;;;;;;;7.18;5.30;;;27.40;72.60;;;;;;5090882;28;20493;-83
2023/05/28 13:56:35;;;;;;;9.80;5.75;;;27.10;74.00;;;;;;5078766;28;20051;-89
2023/05/28 13:59:39;;;;;;;8.88;5.47;;;27.00;74.90;;;;;;5091154;28;20067;-81
2023/05/28 14:02:43;;;;;;;11.10;5.45;;;26.70;75.60;;;;;;5091069;28;20043;-86
2023/05/28 14:05:47;;;;;;;14.60;5.15;;;26.90;75.40;;;;;;5078653;28;20059;-84
2023/05/28 14:08:51;;;;;;;9.60;5.97;;;27.10;75.10;;;;;;5090937;28;20202;-89
2023/05/28 14:11:55;;;;;;;12.05;5.57;;;27.30;74.80;;;;;;5078661;28;20055;-89
2023/05/28 14:14:59;;;;;;;7.53;4.93;;;27.40;74.00;;;;;;5091173;28;20055;-86
2023/05/28 14:18:03;;;;;;;8.80;5.47;;;27.50;73.50;;;;;;5090876;28;20039;-91
2023/05/28 14:21:07;;;;;;;9.18;5.00;;;27.30;74.10;;;;;;5090696;28;20051;-86
2023/05/28 14:24:12;;;;;;;100.03;80.07;;;27.20;75.50;;;;;;5090649;28;20047;-82
2023/05/28 14:27:15;;;;;;;11.38;6.40;;;27.00;76.80;;;;;;5090716;28;20039;-88
2023/05/28 14:30:19;;;;;;;7.00;5.95;;;27.00;76.10;;;;;;5078175;28;20408;-82
2023/05/28 14:33:28;;;;;;;12.50;7.40;;;27.00;76.00;;;;;;5090386;28;20499;-85
2023/05/28 14:36:32;;;;;;;7.45;6.32;;;27.00;81.30;;;;;;5090891;28;20397;-92
2023/05/28 14:39:36;;;;;;;8.75;6.75;;;27.00;79.20;;;;;;5090653;28;20039;-87
2023/05/28 14:42:40;;;;;;;10.13;5.90;;;27.10;80.80;;;;;;5092146;28;20041;-90
2023/05/28 14:45:44;;;;;;;10.27;6.53;;;27.10;80.70;;;;;;5077762;28;20063;-85
2023/05/28 14:48:48;;;;;;;9.00;6.05;;;27.20;82.80;;;;;;5077472;28;20039;-79
2023/05/28 14:51:55;;;;;;;9.35;6.15;;;27.10;82.50;;;;;;5092221;28;20047;-82
2023/05/28 14:54:59;;;;;;;9.00;6.25;;;27.10;81.80;;;;;;5094250;28;20043;-81
2023/05/28 14:58:03;;;;;;;10.93;6.25;;;27.00;82.40;;;;;;5093795;28;20040;-78
2023/05/28 15:01:07;;;;;;;7.25;5.15;;;26.90;83.80;;;;;;5093701;28;20047;-82
2023/05/28 15:04:11;;;;;;;9.77;4.97;;;26.60;81.50;;;;;;5081041;28;20058;-80
2023/05/28 15:07:15;;;;;;;6.88;4.60;;;26.50;80.60;;;;;;5093073;28;20039;-80
2023/05/28 15:10:19;;;;;;;12.52;4.68;;;26.30;79.80;;;;;;5093485;28;20043;-84
2023/05/28 15:13:23;;;;;;;7.55;4.15;;;26.20;79.90;;;;;;5093311;28;20043;-82
2023/05/28 15:16:27;;;;;;;6.20;4.70;;;26.10;80.00;;;;;;5093378;28;20032;-81
2023/05/28 15:19:31;;;;;;;8.07;3.90;;;26.10;80.70;;;;;;5080783;28;20051;-80
2023/05/28 15:22:35;;;;;;;6.90;4.78;;;26.10;80.50;;;;;;5093041;28;20286;-81
2023/05/28 15:25:39;;;;;;;9.80;5.60;;;26.00;81.10;;;;;;5093117;28;20534;-90
2023/05/28 15:28:43;;;;;;;8.98;4.97;;;26.00;80.70;;;;;;5093353;28;20510;-84
2023/05/28 15:31:48;;;;;;;7.72;4.95;;;26.00;80.40;;;;;;5093579;28;20502;-85
2023/05/28 15:34:52;;;;;;;9.00;5.38;;;26.00;80.90;;;;;;5081040;28;20379;-90
2023/05/28 15:37:57;;;;;;;9.43;5.43;;;26.10;80.80;;;;;;5093488;28;20503;-87
2023/05/28 15:41:01;;;;;;;10.10;5.45;;;26.10;81.30;;;;;;5081143;28;20388;-84
2023/05/28 15:44:05;;;;;;;9.35;5.05;;;26.10;80.70;;;;;;5080216;28;20055;-87
2023/05/28 15:47:09;;;;;;;7.45;4.80;;;26.00;80.30;;;;;;5092526;28;20047;-82
2023/05/28 15:50:13;;;;;;;7.03;4.78;;;26.00;78.90;;;;;;5092452;28;20399;-82
2023/05/28 15:53:17;;;;;;;7.32;5.05;;;25.90;79.50;;;;;;5092754;28;20047;-84